Time;durP1;ratioP1;P1;durP2;ratioP2;P2;SDS_P1;SDS_P2;PMS_P1;PMS_P2;Temp;Humidity;BMP_temperature;BMP_pressure;BME280_temperature;BME280_humidity;BME280_pressure;Samples;Min_cycle;Max_cycle;Signal;HPM_P1;HPM_P2
2021/12/15 00:00:34;;;;;;;6.40;5.47;;;4.50;99.90;;;;;;5030980;28;20192;-72
2021/12/15 00:03:00;;;;;;;7.25;6.55;;;4.50;99.90;;;;;;5031819;28;20690;-72
2021/12/15 00:05:26;;;;;;;6.22;5.63;;;4.40;99.90;;;;;;5031555;28;20177;-71
2021/12/15 00:08:04;;;;;;;5.95;5.45;;;4.40;99.90;;;;;;5031864;28;20282;-72
2021/12/15 00:10:30;;;;;;;6.50;5.90;;;4.50;99.90;;;;;;5028457;28;20208;-72
2021/12/15 00:12:56;;;;;;;6.20;5.60;;;4.40;99.90;;;;;;5012303;28;20251;-72
2021/12/15 00:15:23;;;;;;;6.03;5.53;;;4.40;99.90;;;;;;5012044;28;20177;-72
2021/12/15 00:17:51;;;;;;;7.22;6.38;;;4.40;99.90;;;;;;5012271;28;20615;-72
2021/12/15 00:20:17;;;;;;;5.82;5.30;;;4.40;99.90;;;;;;5021833;28;20196;-72
2021/12/15 00:22:43;;;;;;;6.03;5.43;;;4.40;99.90;;;;;;5011930;28;20208;-72
2021/12/15 00:25:10;;;;;;;5.53;5.03;;;4.40;99.90;;;;;;5011968;28;20177;-72
2021/12/15 00:27:36;;;;;;;6.80;6.20;;;4.40;99.90;;;;;;5012175;28;20247;-72
2021/12/15 00:30:05;;;;;;;6.47;5.88;;;4.40;99.90;;;;;;5012489;28;20185;-72
2021/12/15 00:32:30;;;;;;;6.40;5.80;;;4.30;99.90;;;;;;5030504;28;20526;-72
2021/12/15 00:34:56;;;;;;;6.25;5.57;;;4.30;99.90;;;;;;5031755;28;20234;-72
2021/12/15 00:37:21;;;;;;;5.93;5.32;;;4.20;99.90;;;;;;5031729;28;20176;-72
2021/12/15 00:39:48;;;;;;;6.80;6.20;;;4.30;99.90;;;;;;5017011;28;20240;-71
2021/12/15 00:42:15;;;;;;;6.85;5.90;;;4.50;99.90;;;;;;5018647;28;20274;-72
2021/12/15 00:44:41;;;;;;;6.10;5.60;;;4.40;99.90;;;;;;5031242;28;20189;-71
2021/12/15 00:47:08;;;;;;;7.35;6.05;;;4.50;99.90;;;;;;5027876;28;20713;-72
2021/12/15 00:49:34;;;;;;;6.10;5.60;;;4.50;99.90;;;;;;5019876;28;20195;-72
2021/12/15 00:51:59;;;;;;;6.28;5.68;;;4.50;99.90;;;;;;5055690;28;20184;-72
2021/12/15 00:54:25;;;;;;;6.65;5.65;;;4.60;99.90;;;;;;5051258;28;20180;-72
2021/12/15 00:56:54;;;;;;;6.22;5.65;;;4.70;99.90;;;;;;5031474;28;20545;-72
2021/12/15 00:59:20;;;;;;;6.07;5.47;;;4.60;99.90;;;;;;5015739;28;20209;-72
2021/12/15 01:01:47;;;;;;;6.43;5.82;;;4.50;99.90;;;;;;5030322;28;20200;-71
2021/12/15 01:04:16;;;;;;;6.07;5.47;;;4.50;99.90;;;;;;5035343;28;20165;-72
2021/12/15 01:06:44;;;;;;;5.68;5.20;;;4.50;99.90;;;;;;5019489;28;20196;-72
2021/12/15 01:09:24;;;;;;;6.32;5.72;;;4.60;99.90;;;;;;5035386;28;20184;-72
2021/12/15 01:19:57;;;;;;;6.00;5.40;;;4.30;99.90;;;;;;5026561;28;20188;-72
2021/12/15 01:22:28;;;;;;;7.32;6.13;;;4.30;99.90;;;;;;5035244;28;20192;-72
2021/12/15 01:25:04;;;;;;;7.20;6.50;;;4.30;99.90;;;;;;5026931;28;20173;-72
2021/12/15 01:27:29;;;;;;;6.45;5.85;;;4.40;99.90;;;;;;5015292;28;20613;-72
2021/12/15 01:29:55;;;;;;;7.32;6.55;;;4.30;99.90;;;;;;5015226;28;20168;-72
2021/12/15 01:32:21;;;;;;;6.78;6.15;;;4.40;99.90;;;;;;5031244;28;20181;-72
2021/12/15 01:34:47;;;;;;;7.25;6.10;;;4.40;99.90;;;;;;5015566;28;20200;-72
2021/12/15 01:37:13;;;;;;;6.35;5.78;;;4.40;99.90;;;;;;5015233;28;20173;-72
2021/12/15 01:39:40;;;;;;;7.20;6.32;;;4.50;99.90;;;;;;5015011;28;20247;-72
2021/12/15 01:42:06;;;;;;;6.57;5.88;;;4.60;99.90;;;;;;5021058;28;20204;-71
2021/12/15 01:47:02;;;;;;;6.80;6.10;;;4.60;99.90;;;;;;5034903;28;20172;-72
2021/12/15 01:49:27;;;;;;;6.65;5.95;;;4.70;99.90;;;;;;5038295;28;20223;-72
2021/12/15 01:51:55;;;;;;;7.10;6.30;;;4.70;99.90;;;;;;5037913;28;20580;-72
2021/12/15 01:54:23;;;;;;;7.53;6.82;;;4.70;99.90;;;;;;5034428;28;20169;-72
2021/12/15 01:56:50;;;;;;;7.55;6.75;;;4.60;99.90;;;;;;5034248;28;20188;-72
2021/12/15 01:59:18;;;;;;;7.55;6.45;;;4.60;99.90;;;;;;5031905;28;20265;-72
2021/12/15 02:01:46;;;;;;;6.40;5.80;;;4.60;99.90;;;;;;5013756;28;20734;-72
2021/12/15 02:04:12;;;;;;;6.22;5.63;;;4.60;99.90;;;;;;5014260;28;20165;-72
2021/12/15 02:06:42;;;;;;;7.30;6.28;;;4.70;99.90;;;;;;5014531;28;20590;-72
2021/12/15 02:09:09;;;;;;;6.35;5.75;;;4.70;99.90;;;;;;5019247;28;20234;-72
2021/12/15 02:11:35;;;;;;;5.97;5.38;;;4.70;99.90;;;;;;5014595;28;20299;-72
2021/12/15 02:14:01;;;;;;;6.00;5.40;;;4.60;99.90;;;;;;5020464;28;20237;-72
2021/12/15 02:16:26;;;;;;;6.53;5.93;;;4.50;99.90;;;;;;5034037;28;20184;-71
2021/12/15 02:18:52;;;;;;;6.70;5.95;;;4.40;99.90;;;;;;5024431;28;20208;-71
2021/12/15 02:21:20;;;;;;;6.97;6.28;;;4.50;99.90;;;;;;5033841;28;20271;-71
2021/12/15 02:23:51;;;;;;;6.22;5.65;;;4.40;99.90;;;;;;5033192;28;20183;-72
2021/12/15 02:26:21;;;;;;;6.20;5.60;;;4.40;99.90;;;;;;5033811;28;20196;-72
2021/12/15 02:28:54;;;;;;;6.22;5.70;;;4.50;99.90;;;;;;5015680;28;20284;-72
2021/12/15 02:34:18;;;;;;;6.45;5.78;;;4.70;99.90;;;;;;5033783;28;20164;-72
2021/12/15 02:37:31;;;;;;;6.50;5.80;;;4.70;99.90;;;;;;5016192;28;20184;-72
2021/12/15 02:39:37;;;;;;;6.78;5.75;;;4.70;99.90;;;;;;5010857;28;20213;-72
2021/12/15 02:42:04;;;;;;;7.68;6.53;;;4.70;99.90;;;;;;5012690;28;20251;-72
2021/12/15 02:44:30;;;;;;;7.43;6.15;;;4.70;99.90;;;;;;5027775;28;20200;-72
2021/12/15 02:46:56;;;;;;;6.68;6.00;;;4.70;99.90;;;;;;5032254;28;20183;-72
2021/12/15 02:49:27;;;;;;;6.20;5.60;;;4.80;99.90;;;;;;5036158;28;20278;-72
2021/12/15 02:51:55;;;;;;;6.70;5.93;;;4.80;99.90;;;;;;5045145;28;20176;-72
2021/12/15 02:54:21;;;;;;;6.43;5.82;;;4.80;99.90;;;;;;5033173;28;20208;-72
2021/12/15 02:56:52;;;;;;;6.78;6.07;;;4.80;99.90;;;;;;5032060;28;20179;-72
2021/12/15 02:59:26;;;;;;;8.13;7.28;;;4.80;99.90;;;;;;5033304;28;20227;-72
2021/12/15 03:02:10;;;;;;;6.47;5.85;;;4.70;99.90;;;;;;5020003;28;20195;-71
2021/12/15 03:07:14;;;;;;;6.70;5.72;;;4.70;99.90;;;;;;5027780;28;20204;-73
2021/12/15 03:17:43;;;;;;;6.55;5.90;;;4.70;99.90;;;;;;5013296;28;20611;-72
2021/12/15 03:20:11;;;;;;;6.65;5.93;;;4.70;99.90;;;;;;5027101;28;20177;-72
2021/12/15 03:22:37;;;;;;;7.18;6.47;;;4.70;99.90;;;;;;5032721;28;20222;-72
2021/12/15 03:25:05;;;;;;;6.10;5.50;;;4.80;99.90;;;;;;5032614;28;20160;-72
2021/12/15 03:33:29;;;;;;;6.93;6.22;;;4.80;99.90;;;;;;5013266;28;20195;-71
2021/12/15 03:36:10;;;;;;;8.48;6.65;;;4.80;99.90;;;;;;5012927;28;20207;-71
2021/12/15 03:38:37;;;;;;;7.20;5.90;;;4.90;99.90;;;;;;5012959;28;20332;-71
2021/12/15 03:41:05;;;;;;;6.50;5.90;;;4.90;99.90;;;;;;5013125;28;20205;-72
2021/12/15 03:43:33;;;;;;;6.57;5.97;;;4.90;99.90;;;;;;5021641;28;20200;-72
2021/12/15 03:46:03;;;;;;;7.35;6.47;;;4.90;99.90;;;;;;5032188;28;20176;-72
2021/12/15 03:48:34;;;;;;;7.95;5.93;;;4.90;99.90;;;;;;5032370;28;20199;-72
2021/12/15 03:51:00;;;;;;;6.38;5.78;;;4.90;99.90;;;;;;5048659;28;20168;-72
2021/12/15 03:53:27;;;;;;;7.18;6.45;;;4.90;99.90;;;;;;5034370;28;20564;-72
2021/12/15 03:55:54;;;;;;;7.60;6.55;;;4.80;99.90;;;;;;5031890;28;20188;-72
2021/12/15 03:58:23;;;;;;;7.00;6.07;;;4.90;99.90;;;;;;5032474;28;20702;-71
2021/12/15 04:01:05;;;;;;;6.47;5.85;;;4.90;99.90;;;;;;5018299;28;20204;-72
2021/12/15 04:03:34;;;;;;;7.60;6.80;;;5.00;99.90;;;;;;5012251;28;20565;-71
2021/12/15 04:06:07;;;;;;;7.60;6.32;;;5.00;99.90;;;;;;5012121;28;20208;-71
2021/12/15 04:08:34;;;;;;;7.60;6.80;;;5.00;99.90;;;;;;5018201;28;20208;-72
2021/12/15 04:11:02;;;;;;;7.65;6.10;;;5.00;99.90;;;;;;5012394;28;20173;-71
2021/12/15 04:13:28;;;;;;;6.28;5.70;;;5.00;99.90;;;;;;5012437;28;20173;-71
2021/12/15 04:15:57;;;;;;;8.48;6.53;;;5.00;99.90;;;;;;5011813;28;20239;-71
2021/12/15 04:18:24;;;;;;;7.93;6.78;;;5.00;99.90;;;;;;5012360;28;20205;-71
2021/12/15 04:20:51;;;;;;;7.57;6.78;;;5.00;99.90;;;;;;5030395;28;20191;-71
2021/12/15 04:23:19;;;;;;;7.45;6.65;;;5.00;99.90;;;;;;5031899;28;20545;-71
2021/12/15 04:25:48;;;;;;;7.45;6.68;;;5.00;99.90;;;;;;5028985;28;20586;-71
2021/12/15 04:28:23;;;;;;;7.07;6.35;;;5.00;99.90;;;;;;5031928;28;20199;-72
2021/12/15 04:30:52;;;;;;;6.82;5.53;;;5.00;99.90;;;;;;5031705;28;20199;-71
2021/12/15 04:33:24;;;;;;;7.28;6.35;;;4.90;99.90;;;;;;5031827;28;20184;-71
2021/12/15 04:35:53;;;;;;;6.28;5.68;;;4.90;99.90;;;;;;5019060;28;20189;-72
2021/12/15 04:38:20;;;;;;;7.10;6.38;;;4.90;99.90;;;;;;5012090;28;20220;-71
2021/12/15 04:40:45;;;;;;;6.82;6.13;;;4.80;99.90;;;;;;5012227;28;20524;-71
2021/12/15 04:43:11;;;;;;;7.18;6.43;;;4.70;99.90;;;;;;5012233;28;20214;-72
2021/12/15 04:45:37;;;;;;;7.95;6.88;;;4.70;99.90;;;;;;5031382;28;20177;-72
2021/12/15 04:48:04;;;;;;;10.45;6.65;;;4.80;99.90;;;;;;5031789;28;20204;-72
2021/12/15 04:50:31;;;;;;;7.32;6.00;;;4.80;99.90;;;;;;5044020;28;20631;-72
2021/12/15 04:53:02;;;;;;;7.40;6.50;;;4.60;99.90;;;;;;5039455;28;20212;-72
2021/12/15 04:55:30;;;;;;;7.03;6.15;;;4.60;99.90;;;;;;5031245;28;20185;-71
2021/12/15 04:57:57;;;;;;;6.93;5.65;;;4.70;99.90;;;;;;5031617;28;20207;-72
2021/12/15 05:00:28;;;;;;;7.57;6.53;;;4.80;99.90;;;;;;5031015;28;20189;-72
2021/12/15 05:02:53;;;;;;;6.63;5.78;;;4.80;99.90;;;;;;5027424;28;20204;-71
2021/12/15 05:05:21;;;;;;;7.25;6.38;;;4.90;99.90;;;;;;5026218;28;20532;-71
2021/12/15 05:07:49;;;;;;;8.35;6.40;;;4.80;99.90;;;;;;5011906;28;20177;-71
2021/12/15 05:10:15;;;;;;;7.70;6.90;;;4.70;99.90;;;;;;5011888;28;20252;-71
2021/12/15 05:12:40;;;;;;;6.43;5.85;;;4.70;99.90;;;;;;5028257;28;20637;-71
2021/12/15 05:15:07;;;;;;;7.35;6.55;;;4.60;99.90;;;;;;5030417;28;20238;-71
2021/12/15 05:17:33;;;;;;;7.13;6.15;;;4.70;99.90;;;;;;5030853;28;20191;-71
2021/12/15 05:20:03;;;;;;;6.50;5.90;;;4.80;99.90;;;;;;5029775;28;20267;-71
2021/12/15 05:22:30;;;;;;;7.10;6.18;;;4.90;99.90;;;;;;5027513;28;20200;-71
2021/12/15 05:24:55;;;;;;;6.72;5.75;;;4.70;99.90;;;;;;5018337;28;20230;-71
2021/12/15 05:27:21;;;;;;;7.43;6.38;;;4.80;99.90;;;;;;5011763;28;20257;-71
2021/12/15 05:29:48;;;;;;;6.95;5.97;;;4.70;99.90;;;;;;5011569;28;20246;-71
2021/12/15 05:32:18;;;;;;;7.03;6.32;;;4.70;99.90;;;;;;5018030;28;20674;-71
2021/12/15 05:34:49;;;;;;;7.72;6.80;;;4.60;99.90;;;;;;5030297;28;20184;-71
2021/12/15 05:37:16;;;;;;;8.13;7.07;;;4.50;99.90;;;;;;5029004;28;20264;-71
2021/12/15 05:39:43;;;;;;;8.05;6.78;;;4.50;99.90;;;;;;5033578;28;20232;-71
2021/12/15 05:42:09;;;;;;;8.50;6.60;;;4.50;99.90;;;;;;5034538;28;20582;-71
2021/12/15 05:44:35;;;;;;;8.90;7.38;;;4.60;99.90;;;;;;5033442;28;20194;-71
2021/12/15 05:47:03;;;;;;;8.88;7.05;;;4.50;99.90;;;;;;5033292;28;20687;-71
2021/12/15 05:49:29;;;;;;;8.35;7.43;;;4.60;99.90;;;;;;5032107;28;20759;-71
2021/12/15 05:51:56;;;;;;;8.45;7.35;;;4.50;99.90;;;;;;5033221;28;20215;-71
2021/12/15 05:54:21;;;;;;;10.05;7.45;;;4.50;99.90;;;;;;5032942;28;20181;-71
2021/12/15 05:56:47;;;;;;;9.45;8.23;;;4.50;99.90;;;;;;5030430;28;20188;-71
2021/12/15 05:59:13;;;;;;;8.43;7.45;;;4.60;99.90;;;;;;5032888;28;20205;-71
2021/12/15 06:01:39;;;;;;;10.32;8.63;;;4.50;99.90;;;;;;5032586;28;20231;-71
2021/12/15 06:04:06;;;;;;;9.70;7.80;;;4.40;99.90;;;;;;5030627;28;20690;-71
2021/12/15 06:06:32;;;;;;;8.50;7.60;;;4.40;99.90;;;;;;5034357;28;20553;-71
2021/12/15 06:08:58;;;;;;;11.45;8.73;;;4.40;99.90;;;;;;5033719;28;20322;-71
2021/12/15 06:11:25;;;;;;;11.35;8.75;;;4.40;99.90;;;;;;5031168;28;20259;-71
2021/12/15 06:13:52;;;;;;;11.65;8.60;;;4.40;99.90;;;;;;5034084;28;20234;-71
2021/12/15 06:16:19;;;;;;;12.52;7.80;;;4.40;99.90;;;;;;5033978;28;20674;-71
2021/12/15 06:18:47;;;;;;;9.93;8.68;;;4.50;99.90;;;;;;5032839;28;20280;-71
2021/12/15 06:21:13;;;;;;;11.40;7.80;;;4.40;99.90;;;;;;5034087;28;20247;-71
2021/12/15 06:23:38;;;;;;;11.75;9.45;;;4.30;99.90;;;;;;5032382;28;20235;-71
2021/12/15 06:26:06;;;;;;;10.32;8.70;;;4.30;99.90;;;;;;5033695;28;20173;-71
2021/12/15 06:28:33;;;;;;;11.15;8.57;;;4.40;99.90;;;;;;5032681;28;20675;-71
2021/12/15 06:31:01;;;;;;;10.13;8.75;;;4.40;99.90;;;;;;5033429;28;20644;-71
2021/12/15 06:33:29;;;;;;;9.73;8.07;;;4.30;99.90;;;;;;5030979;28;20195;-71
2021/12/15 06:35:58;;;;;;;10.93;8.73;;;4.40;99.90;;;;;;5032901;28;20180;-71
2021/12/15 06:38:28;;;;;;;11.77;9.02;;;4.30;99.90;;;;;;5033540;28;20195;-71
2021/12/15 06:40:55;;;;;;;11.82;9.43;;;4.30;99.90;;;;;;5032348;28;20207;-71
2021/12/15 06:43:21;;;;;;;11.45;8.68;;;4.40;99.90;;;;;;5031707;28;20196;-71
2021/12/15 06:59:20;;;;;;;11.88;9.55;;;5.10;99.90;;;;;;5031574;28;20239;-71
2021/12/15 07:01:46;;;;;;;11.65;9.45;;;5.10;99.90;;;;;;5028638;28;20676;-71
2021/12/15 07:04:12;;;;;;;14.00;9.95;;;5.10;99.90;;;;;;5032299;28;20786;-71
2021/12/15 07:06:38;;;;;;;13.32;9.73;;;5.00;99.90;;;;;;5029753;28;20184;-72
2021/12/15 07:09:04;;;;;;;10.75;9.20;;;4.90;99.90;;;;;;5033229;28;20330;-71
2021/12/15 07:11:30;;;;;;;13.15;9.65;;;4.80;99.90;;;;;;5014407;28;20260;-72
2021/12/15 07:13:55;;;;;;;15.40;9.88;;;4.80;99.90;;;;;;5028676;28;20230;-71
2021/12/15 07:16:21;;;;;;;11.00;9.18;;;4.70;99.90;;;;;;5032047;28;20643;-72
2021/12/15 07:21:19;;;;;;;12.52;9.75;;;4.70;99.90;;;;;;5031320;28;20183;-71
2021/12/15 07:23:47;;;;;;;10.77;9.18;;;4.60;99.90;;;;;;5031871;28;20176;-71
2021/12/15 07:26:13;;;;;;;10.98;8.90;;;4.70;99.90;;;;;;5030002;28;20169;-72
2021/12/15 07:28:40;;;;;;;12.35;9.50;;;4.80;99.90;;;;;;5030502;28;20943;-71
2021/12/15 07:31:07;;;;;;;11.15;9.23;;;4.80;99.90;;;;;;5032579;28;20168;-71
2021/12/15 07:33:33;;;;;;;13.50;9.57;;;4.90;99.90;;;;;;5028329;28;20176;-70
2021/12/15 07:35:59;;;;;;;11.57;9.20;;;4.80;99.90;;;;;;5032355;28;20191;-70
2021/12/15 07:38:24;;;;;;;12.70;9.32;;;4.70;99.90;;;;;;5032380;28;20275;-70
2021/12/15 07:40:50;;;;;;;12.70;9.52;;;4.80;99.90;;;;;;5031450;28;20190;-70
2021/12/15 07:43:26;;;;;;;12.00;9.43;;;4.70;99.90;;;;;;5027839;28;20208;-71
2021/12/15 07:45:58;;;;;;;11.57;9.07;;;4.70;99.90;;;;;;5013889;28;20538;-72
2021/12/15 07:48:28;;;;;;;12.18;9.45;;;4.80;99.90;;;;;;5031839;28;20693;-72
2021/12/15 07:50:57;;;;;;;14.05;10.02;;;4.90;99.90;;;;;;5037627;28;20558;-72
2021/12/15 07:53:23;;;;;;;11.73;9.20;;;4.80;99.90;;;;;;5029423;28;20180;-72
2021/12/15 07:55:49;;;;;;;12.52;10.45;;;4.70;99.90;;;;;;5032223;28;20260;-72
2021/12/15 07:58:18;;;;;;;13.27;10.35;;;4.70;99.90;;;;;;5032336;28;20212;-72
2021/12/15 08:00:45;;;;;;;14.52;10.50;;;4.60;99.90;;;;;;5030009;28;20216;-72
2021/12/15 08:03:11;;;;;;;15.57;10.50;;;4.60;99.90;;;;;;5031576;28;20200;-71
2021/12/15 08:05:38;;;;;;;14.45;10.20;;;4.80;99.90;;;;;;5030585;28;20183;-71
2021/12/15 08:08:05;;;;;;;18.13;11.63;;;4.80;99.90;;;;;;5026179;28;20563;-72
2021/12/15 08:10:31;;;;;;;16.27;10.55;;;4.80;99.90;;;;;;5012074;28;20215;-71
2021/12/15 08:12:57;;;;;;;15.65;12.00;;;4.80;99.90;;;;;;5016553;28;20207;-71
2021/12/15 08:15:22;;;;;;;15.15;10.95;;;4.70;99.90;;;;;;5031094;28;20541;-72
2021/12/15 08:17:51;;;;;;;16.17;11.38;;;4.80;99.90;;;;;;5025946;28;20188;-71
2021/12/15 08:20:22;;;;;;;16.55;12.35;;;4.80;99.90;;;;;;5031170;28;20592;-72
2021/12/15 08:22:48;;;;;;;17.08;10.77;;;4.90;99.90;;;;;;5031529;28;20279;-71
2021/12/15 08:25:15;;;;;;;16.27;11.55;;;4.90;99.90;;;;;;5030183;28;20218;-71
2021/12/15 08:27:42;;;;;;;16.83;11.93;;;4.90;99.90;;;;;;5013867;28;20177;-71
2021/12/15 08:30:11;;;;;;;17.35;11.88;;;4.90;99.90;;;;;;5012310;28;20188;-71
2021/12/15 08:32:38;;;;;;;16.98;11.65;;;4.90;99.90;;;;;;5031450;28;20339;-71
2021/12/15 08:35:04;;;;;;;17.80;11.88;;;4.80;99.90;;;;;;5030832;28;20184;-71
2021/12/15 08:37:30;;;;;;;18.15;12.18;;;4.90;99.90;;;;;;5013991;28;20177;-71
2021/12/15 08:39:56;;;;;;;15.05;10.88;;;4.90;99.90;;;;;;5019618;28;20180;-72
2021/12/15 08:42:22;;;;;;;16.80;12.48;;;4.90;99.90;;;;;;5030671;28;20207;-70
2021/12/15 08:44:47;;;;;;;19.90;12.40;;;4.80;99.90;;;;;;5031085;28;20185;-72
2021/12/15 08:47:13;;;;;;;18.80;12.73;;;4.90;99.90;;;;;;5031316;28;20218;-73
2021/12/15 08:49:39;;;;;;;17.00;11.95;;;4.90;99.90;;;;;;5028724;28;20301;-72
2021/12/15 08:52:06;;;;;;;18.77;12.20;;;4.90;99.90;;;;;;5030923;28;20212;-73
2021/12/15 08:54:32;;;;;;;19.23;12.57;;;5.00;99.90;;;;;;5030225;28;20188;-72
2021/12/15 08:56:58;;;;;;;17.45;12.13;;;5.00;99.90;;;;;;5031187;28;20667;-72
2021/12/15 08:59:24;;;;;;;19.20;12.50;;;5.10;99.90;;;;;;5026943;28;20216;-72
2021/12/15 09:01:51;;;;;;;21.92;13.77;;;5.20;99.90;;;;;;5029326;28;20733;-72
2021/12/15 09:04:17;;;;;;;19.15;12.90;;;5.20;99.90;;;;;;5030814;28;20552;-71
2021/12/15 09:06:44;;;;;;;20.80;13.25;;;5.30;99.90;;;;;;5031048;28;20263;-72
2021/12/15 09:09:12;;;;;;;20.52;13.50;;;5.50;99.90;;;;;;5019239;28;20615;-72
2021/12/15 09:11:38;;;;;;;18.63;12.70;;;5.50;99.90;;;;;;5012302;28;20548;-71
2021/12/15 09:14:06;;;;;;;23.13;13.90;;;5.60;99.90;;;;;;5033834;28;20176;-71
2021/12/15 09:16:34;;;;;;;19.80;13.07;;;5.60;99.90;;;;;;5034659;28;20563;-72
2021/12/15 09:19:00;;;;;;;18.25;12.90;;;5.80;99.90;;;;;;5032361;28;20193;-73
2021/12/15 09:21:29;;;;;;;21.15;12.75;;;5.90;99.90;;;;;;5033725;28;20667;-72
2021/12/15 09:23:56;;;;;;;20.50;12.95;;;5.90;99.90;;;;;;5032163;28;20663;-72
2021/12/15 09:26:22;;;;;;;19.63;12.55;;;5.70;99.90;;;;;;5033102;28;20184;-72
2021/12/15 09:28:49;;;;;;;18.98;13.43;;;5.50;99.90;;;;;;5034812;28;20200;-73
2021/12/15 09:31:16;;;;;;;20.08;13.68;;;5.50;99.90;;;;;;5034324;28;20173;-73
2021/12/15 09:33:46;;;;;;;15.85;12.27;;;5.50;99.90;;;;;;5033330;28;20456;-72
2021/12/15 09:36:13;;;;;;;14.85;11.80;;;5.60;99.90;;;;;;5033342;28;20624;-72
2021/12/15 09:38:41;;;;;;;17.45;12.80;;;5.60;99.90;;;;;;5033590;28;20351;-73
2021/12/15 09:41:10;;;;;;;22.90;15.02;;;5.60;99.90;;;;;;5034267;28;20176;-72
2021/12/15 09:43:37;;;;;;;20.77;13.18;;;5.50;99.90;;;;;;5030991;28;20233;-73
2021/12/15 09:46:33;;;;;;;18.35;12.07;;;5.50;99.90;;;;;;5034106;28;20173;-73
2021/12/15 10:02:01;;;;;;;20.40;13.23;;;6.10;99.90;;;;;;5034258;28;20215;-73
2021/12/15 10:02:56;;;;;;;16.38;11.80;;;6.10;99.90;;;;;;5034025;28;20215;-75
2021/12/15 10:05:41;;;;;;;20.45;13.48;;;6.00;99.90;;;;;;5032079;28;20180;-72
2021/12/15 10:19:35;;;;;;;19.15;13.60;;;6.40;99.90;;;;;;5028384;28;20250;-71
2021/12/15 10:22:11;;;;;;;15.88;12.13;;;6.40;99.90;;;;;;5025764;28;20208;-72
2021/12/15 10:24:46;;;;;;;15.82;11.55;;;6.40;99.90;;;;;;5045366;28;20655;-72
2021/12/15 10:27:36;;;;;;;14.35;11.13;;;6.40;99.90;;;;;;5027819;28;20176;-72
2021/12/15 10:30:18;;;;;;;16.00;11.90;;;6.50;99.90;;;;;;5026416;28;20205;-71
2021/12/15 10:32:45;;;;;;;16.30;11.32;;;6.60;99.90;;;;;;5031236;28;20176;-72
2021/12/15 10:35:18;;;;;;;15.93;12.77;;;6.40;99.90;;;;;;5033059;28;20263;-72
2021/12/15 10:38:09;;;;;;;16.33;12.77;;;6.40;99.90;;;;;;5030416;28;20181;-71
2021/12/15 10:40:58;;;;;;;16.55;12.38;;;6.30;99.90;;;;;;5033315;28;20192;-72
2021/12/15 10:43:38;;;;;;;17.83;11.85;;;6.20;99.90;;;;;;5029991;28;20196;-71
2021/12/15 10:46:09;;;;;;;18.63;12.77;;;6.30;99.90;;;;;;5028693;28;20184;-72
2021/12/15 10:48:44;;;;;;;14.70;11.30;;;6.50;99.90;;;;;;5030855;28;20242;-72
2021/12/15 10:51:50;;;;;;;16.00;11.25;;;6.70;99.90;;;;;;5029558;28;20181;-72
2021/12/15 10:54:20;;;;;;;21.23;13.18;;;6.60;99.90;;;;;;5054970;28;20175;-72
2021/12/15 10:56:53;;;;;;;15.95;12.55;;;6.40;99.90;;;;;;5050631;28;20184;-71
2021/12/15 10:59:20;;;;;;;15.88;12.57;;;6.20;99.90;;;;;;5035069;28;20235;-73
2021/12/15 11:01:48;;;;;;;17.48;13.20;;;6.20;99.90;;;;;;5029580;28;20590;-72
2021/12/15 11:04:23;;;;;;;14.63;12.10;;;6.20;99.90;;;;;;5035067;28;20172;-73
2021/12/15 11:07:05;;;;;;;16.75;12.15;;;6.30;99.90;;;;;;5045897;28;20172;-73
2021/12/15 11:09:39;;;;;;;13.77;11.90;;;6.50;99.90;;;;;;5029823;28;20199;-73
2021/12/15 11:12:13;;;;;;;16.15;13.07;;;6.50;99.90;;;;;;5032111;28;20284;-73
2021/12/15 11:14:42;;;;;;;17.42;13.15;;;6.50;99.90;;;;;;5032333;28;20262;-73
2021/12/15 11:17:23;;;;;;;15.30;11.88;;;6.60;99.90;;;;;;5031509;28;20184;-73
2021/12/15 11:20:10;;;;;;;16.95;12.75;;;6.60;99.90;;;;;;5032494;28;20254;-71
2021/12/15 11:22:44;;;;;;;15.60;12.75;;;6.70;99.90;;;;;;5031890;28;20193;-71
2021/12/15 11:25:33;;;;;;;15.07;12.10;;;6.60;99.90;;;;;;5028712;28;20234;-72
2021/12/15 11:28:09;;;;;;;17.58;11.95;;;6.60;99.90;;;;;;5025436;28;20204;-74
2021/12/15 11:31:07;;;;;;;17.30;13.13;;;6.60;99.90;;;;;;5029325;28;20184;-72
2021/12/15 11:33:59;;;;;;;17.58;13.52;;;6.60;99.90;;;;;;5013412;28;20189;-71
2021/12/15 11:36:44;;;;;;;16.85;12.50;;;6.40;99.90;;;;;;5019163;28;20636;-71
2021/12/15 11:39:16;;;;;;;15.32;12.18;;;6.20;99.90;;;;;;5012768;28;20282;-72
2021/12/15 11:41:50;;;;;;;15.32;11.63;;;6.20;99.90;;;;;;5012573;28;20197;-73
2021/12/15 11:44:22;;;;;;;17.10;12.60;;;6.40;99.90;;;;;;5030031;28;20181;-73
2021/12/15 11:46:54;;;;;;;15.43;12.23;;;6.40;99.90;;;;;;5032285;28;20165;-73
2021/12/15 11:49:26;;;;;;;15.75;12.13;;;6.70;99.90;;;;;;5032903;28;20204;-72
2021/12/15 11:51:53;;;;;;;14.48;12.55;;;6.80;99.90;;;;;;5023904;28;20185;-73
2021/12/15 11:54:22;;;;;;;13.98;12.23;;;6.90;99.90;;;;;;5024106;28;20578;-73
2021/12/15 11:56:57;;;;;;;16.33;12.50;;;7.00;99.90;;;;;;5030691;28;20177;-73
2021/12/15 11:59:38;;;;;;;17.17;12.82;;;7.10;99.90;;;;;;5029164;28;20223;-72
2021/12/15 12:02:24;;;;;;;15.60;12.15;;;7.00;99.90;;;;;;5029285;28;20276;-72
2021/12/15 12:04:59;;;;;;;16.02;12.40;;;7.00;99.90;;;;;;5030672;28;20224;-72
2021/12/15 12:07:38;;;;;;;15.73;12.38;;;6.90;99.90;;;;;;5030331;28;20235;-71
2021/12/15 12:10:13;;;;;;;16.52;12.00;;;7.00;99.90;;;;;;5020343;28;20188;-72
2021/12/15 12:12:50;;;;;;;13.95;12.45;;;6.90;99.90;;;;;;5031610;28;20188;-72
2021/12/15 12:15:18;;;;;;;16.92;13.07;;;6.70;99.90;;;;;;5031878;28;20596;-73
2021/12/15 12:17:46;;;;;;;14.50;11.85;;;6.60;99.90;;;;;;5030099;28;20610;-74
2021/12/15 12:20:14;;;;;;;16.85;13.05;;;6.70;99.90;;;;;;5031228;28;20565;-72
2021/12/15 12:22:43;;;;;;;15.35;12.70;;;6.70;99.90;;;;;;5032221;28;20196;-73
2021/12/15 12:25:17;;;;;;;15.50;12.90;;;6.90;99.90;;;;;;5031760;28;20176;-73
2021/12/15 12:27:44;;;;;;;14.68;12.43;;;6.60;99.90;;;;;;5023536;28;20207;-73
2021/12/15 12:30:19;;;;;;;16.10;13.48;;;6.60;99.90;;;;;;5030264;28;20235;-73
2021/12/15 12:32:45;;;;;;;17.80;13.05;;;6.60;99.90;;;;;;5031836;28;20667;-72
2021/12/15 12:35:15;;;;;;;15.25;12.60;;;6.40;99.90;;;;;;5030349;28;20185;-73
2021/12/15 12:37:41;;;;;;;16.80;12.35;;;6.50;99.90;;;;;;5030047;28;20691;-73
2021/12/15 12:40:38;;;;;;;16.58;13.05;;;6.50;99.90;;;;;;5031662;28;20272;-72
2021/12/15 12:43:24;;;;;;;17.15;13.02;;;6.70;99.90;;;;;;5031301;28;20226;-72
2021/12/15 12:46:11;;;;;;;16.70;12.75;;;6.60;99.90;;;;;;5030169;28;20177;-73
2021/12/15 12:48:56;;;;;;;15.85;12.32;;;6.60;99.90;;;;;;5035557;28;20204;-71
2021/12/15 12:59:55;;;;;;;16.38;12.77;;;6.50;99.90;;;;;;5035323;28;20610;-72
2021/12/15 13:03:01;;;;;;;14.88;12.30;;;6.40;99.90;;;;;;5033062;28;20196;-72
2021/12/15 13:05:44;;;;;;;16.60;13.23;;;6.40;99.90;;;;;;5034104;28;20180;-72
2021/12/15 13:08:34;;;;;;;15.85;12.95;;;6.40;99.90;;;;;;5033827;28;20199;-73
2021/12/15 13:11:06;;;;;;;15.95;13.35;;;6.60;99.90;;;;;;5033716;28;20210;-72
2021/12/15 13:13:48;;;;;;;16.83;13.85;;;6.50;99.90;;;;;;5032496;28;20184;-73
2021/12/15 13:16:52;;;;;;;18.80;13.25;;;6.40;99.90;;;;;;5034474;28;20181;-72
2021/12/15 13:19:33;;;;;;;17.42;13.00;;;6.30;99.90;;;;;;5026122;28;20215;-72
2021/12/15 13:31:05;;;;;;;14.65;11.82;;;6.40;99.90;;;;;;5033438;28;20207;-72
2021/12/15 13:33:31;;;;;;;16.85;13.10;;;6.50;99.90;;;;;;5032253;28;20678;-73
2021/12/15 13:36:10;;;;;;;17.05;13.48;;;6.60;99.90;;;;;;5032920;28;20180;-71
2021/12/15 13:38:42;;;;;;;16.55;12.57;;;6.50;99.90;;;;;;5032293;28;20353;-72
2021/12/15 13:41:14;;;;;;;15.45;12.43;;;6.50;99.90;;;;;;5031337;28;20201;-72
2021/12/15 13:43:46;;;;;;;17.58;13.93;;;6.60;99.90;;;;;;5032448;28;20663;-72
2021/12/15 13:46:35;;;;;;;19.10;13.57;;;6.60;99.90;;;;;;5033070;28;20570;-73
2021/12/15 13:49:09;;;;;;;16.70;13.57;;;6.60;99.90;;;;;;5031539;28;20219;-72
2021/12/15 13:52:06;;;;;;;17.65;13.43;;;6.60;99.90;;;;;;5029671;28;20182;-72
2021/12/15 13:54:35;;;;;;;17.17;13.18;;;6.70;99.90;;;;;;5024815;28;20204;-72
2021/12/15 13:57:09;;;;;;;17.02;13.32;;;6.60;99.90;;;;;;5030853;28;20698;-71
2021/12/15 13:59:39;;;;;;;17.38;12.73;;;6.50;99.90;;;;;;5029769;28;20732;-72
2021/12/15 14:02:21;;;;;;;19.00;13.80;;;6.50;99.90;;;;;;5030389;28;20220;-72
2021/12/15 14:04:53;;;;;;;17.90;14.13;;;6.50;99.90;;;;;;5032827;28;20608;-71
2021/12/15 14:07:30;;;;;;;19.65;14.60;;;6.30;99.90;;;;;;5031628;28;20172;-73
2021/12/15 14:09:56;;;;;;;20.65;14.68;;;6.10;99.90;;;;;;5031986;28;20211;-73
2021/12/15 14:12:50;;;;;;;21.70;15.70;;;5.90;99.90;;;;;;5024544;28;20622;-72
2021/12/15 14:15:24;;;;;;;20.27;14.52;;;5.80;99.90;;;;;;5033816;28;20180;-71
2021/12/15 14:18:08;;;;;;;18.48;13.95;;;5.90;99.90;;;;;;5024442;28;20180;-72
2021/12/15 14:20:49;;;;;;;18.30;14.23;;;6.00;99.90;;;;;;5032417;28;20183;-73
2021/12/15 14:23:18;;;;;;;24.73;15.25;;;6.00;99.90;;;;;;5033610;28;20202;-73
2021/12/15 14:25:45;;;;;;;21.85;15.02;;;5.90;99.90;;;;;;5034002;28;20172;-72
2021/12/15 14:28:32;;;;;;;21.50;15.20;;;6.00;99.90;;;;;;5032295;28;20207;-72